createdAt,value
2022-12-24T00:00:29.466Z,5.22
2022-12-24T00:05:33.657Z,5.22
2022-12-24T00:10:46.253Z,5.20
2022-12-24T00:15:55.351Z,5.18
2022-12-24T00:21:01.878Z,5.17
2022-12-24T00:26:13.292Z,5.17
2022-12-24T00:31:18.197Z,5.14
2022-12-24T00:36:20.470Z,5.13
2022-12-24T00:41:25.122Z,5.13
2022-12-24T00:46:36.023Z,5.11
2022-12-24T00:51:37.864Z,5.08
2022-12-24T00:56:41.653Z,5.06
2022-12-24T01:01:46.062Z,5.04
2022-12-24T01:06:47.807Z,5.05
2022-12-24T01:11:51.876Z,5.02
2022-12-24T01:16:58.565Z,5.00
2022-12-24T01:22:05.278Z,4.99
2022-12-24T01:27:07.017Z,4.98
2022-12-24T01:32:08.928Z,4.98
2022-12-24T01:37:10.951Z,4.99
2022-12-24T01:42:38.435Z,4.99
2022-12-24T01:47:40.266Z,4.98
2022-12-24T01:52:46.080Z,4.99
2022-12-24T01:57:56.945Z,4.99
2022-12-24T02:03:04.425Z,4.99
2022-12-24T02:08:07.909Z,5.00
2022-12-24T02:13:22.506Z,5.01
2022-12-24T02:18:55.810Z,5.01
2022-12-24T02:24:09.919Z,4.99
2022-12-24T02:29:20.378Z,5.00
2022-12-24T02:34:40.872Z,4.98
2022-12-24T02:39:51.419Z,4.95
2022-12-24T02:45:06.622Z,4.94
2022-12-24T02:50:15.958Z,4.92
2022-12-24T02:55:22.396Z,4.91
2022-12-24T03:00:25.815Z,4.90
2022-12-24T03:05:49.815Z,4.91
2022-12-24T03:11:02.287Z,4.92
2022-12-24T03:16:06.582Z,4.92
2022-12-24T03:21:31.967Z,4.92
2022-12-24T03:26:38.813Z,4.91
2022-12-24T03:31:52.300Z,4.89
2022-12-24T03:36:59.389Z,4.90
2022-12-24T03:42:04.543Z,4.91
2022-12-24T03:47:10.851Z,4.91
2022-12-24T03:52:14.858Z,4.89
2022-12-24T03:57:16.734Z,4.88
2022-12-24T04:02:18.959Z,4.88
2022-12-24T04:07:25.466Z,4.90
2022-12-24T04:12:32.033Z,4.90
2022-12-24T04:17:33.789Z,4.88
2022-12-24T04:22:35.577Z,4.89
2022-12-24T04:27:39.605Z,4.88
2022-12-24T04:32:43.559Z,4.88
2022-12-24T04:37:45.224Z,4.88
2022-12-24T04:42:50.597Z,4.88
2022-12-24T04:47:52.356Z,4.90
2022-12-24T04:52:54.145Z,4.91
2022-12-24T04:57:55.837Z,4.91
2022-12-24T05:03:00.230Z,4.94
2022-12-24T05:08:04.613Z,4.93
2022-12-24T05:13:08.792Z,4.97
2022-12-24T05:18:13.460Z,4.96
2022-12-24T05:23:42.091Z,4.99
2022-12-24T05:28:43.760Z,5.00
2022-12-24T05:33:47.883Z,5.02
2022-12-24T05:38:49.818Z,5.03
2022-12-24T05:43:54.060Z,5.02
2022-12-24T05:48:55.837Z,5.02
2022-12-24T05:53:58.566Z,5.01
2022-12-24T05:59:02.777Z,5.02
2022-12-24T06:04:09.253Z,5.03
2022-12-24T06:09:11.107Z,5.01
2022-12-24T06:14:14.960Z,5.02
2022-12-24T06:19:16.748Z,5.05
2022-12-24T06:24:21.464Z,5.04
2022-12-24T06:29:27.305Z,5.04
2022-12-24T06:34:29.316Z,5.04
2022-12-24T06:39:31.054Z,5.03
2022-12-24T06:44:35.287Z,5.00
2022-12-24T06:49:39.236Z,4.99
2022-12-24T06:54:40.948Z,4.98
2022-12-24T06:59:42.613Z,4.97
2022-12-24T07:04:47.021Z,5.01
2022-12-24T07:09:51.051Z,5.01
2022-12-24T07:14:55.039Z,5.01
2022-12-24T07:19:59.297Z,5.04
2022-12-24T07:25:06.162Z,5.06
2022-12-24T07:30:08.669Z,5.03
2022-12-24T07:35:10.373Z,5.07
2022-12-24T07:40:17.348Z,5.07
2022-12-24T07:45:20.075Z,5.12
2022-12-24T07:50:21.759Z,5.18
2022-12-24T07:55:26.880Z,5.28
2022-12-24T08:00:28.715Z,5.36
2022-12-24T08:05:35.129Z,5.40
2022-12-24T08:10:39.764Z,5.42
2022-12-24T08:15:42.815Z,5.46
2022-12-24T08:20:48.069Z,5.57
2022-12-24T08:25:50.160Z,5.58
2022-12-24T08:30:54.240Z,5.54
2022-12-24T08:35:58.580Z,5.61
2022-12-24T08:41:00.274Z,5.68
2022-12-24T08:46:05.834Z,5.87
2022-12-24T08:51:12.161Z,6.06
2022-12-24T08:56:16.460Z,6.04
2022-12-24T09:01:21.395Z,6.24
2022-12-24T09:06:25.683Z,6.37
2022-12-24T09:11:29.699Z,6.54
2022-12-24T09:16:36.810Z,6.70
2022-12-24T09:21:41.553Z,6.75
2022-12-24T09:26:43.402Z,6.84
2022-12-24T09:31:47.868Z,6.91
2022-12-24T09:36:54.418Z,7.00
2022-12-24T09:42:16.281Z,7.12
2022-12-24T09:47:29.129Z,7.28
2022-12-24T09:52:39.314Z,7.47
2022-12-24T09:57:47.064Z,7.67
2022-12-24T10:02:48.870Z,7.73
2022-12-24T10:07:53.414Z,7.76
2022-12-24T10:13:56.237Z,7.80
2022-12-24T10:19:24.291Z,7.87
2022-12-24T10:24:34.798Z,7.95
2022-12-24T10:29:42.945Z,8.01
2022-12-24T10:34:48.328Z,8.19
2022-12-24T10:39:57.564Z,8.31
2022-12-24T10:45:04.150Z,8.34
2022-12-24T10:50:27.586Z,8.37
2022-12-24T10:55:29.928Z,8.38
2022-12-24T11:00:37.475Z,8.50
2022-12-24T11:05:45.216Z,8.66
2022-12-24T11:11:06.123Z,8.66
2022-12-24T11:16:31.119Z,8.65
2022-12-24T11:21:35.371Z,8.74
2022-12-24T11:26:38.135Z,8.83
2022-12-24T11:31:46.152Z,8.83
2022-12-24T11:36:47.949Z,8.79
2022-12-24T11:41:53.261Z,8.76
2022-12-24T11:46:59.053Z,8.87
2022-12-24T11:52:12.621Z,8.98
2022-12-24T11:57:16.470Z,8.95
2022-12-24T12:02:34.483Z,8.96
2022-12-24T12:07:38.254Z,8.97
2022-12-24T12:12:45.710Z,8.96
2022-12-24T12:18:13.948Z,9.01
2022-12-24T12:23:35.886Z,9.15
2022-12-24T12:28:45.610Z,9.16
2022-12-24T12:33:52.463Z,9.13
2022-12-24T12:38:54.221Z,9.12
2022-12-24T12:44:19.945Z,9.05
2022-12-24T12:49:23.877Z,9.00
2022-12-24T12:54:40.217Z,8.99
2022-12-24T12:59:56.921Z,9.03
2022-12-24T13:05:27.804Z,8.97
2022-12-24T13:11:09.394Z,9.00
2022-12-24T13:16:34.002Z,8.98
2022-12-24T13:21:36.916Z,8.86
2022-12-24T13:26:38.644Z,8.79
2022-12-24T13:31:40.397Z,8.78
2022-12-24T13:37:04.108Z,8.75
2022-12-24T13:42:08.321Z,8.67
2022-12-24T13:47:13.293Z,8.60
2022-12-24T13:52:14.921Z,8.51
2022-12-24T13:57:34.313Z,8.55
2022-12-24T14:02:43.295Z,8.47
2022-12-24T14:07:47.733Z,8.47
2022-12-24T14:12:55.257Z,8.44
2022-12-24T14:17:57.076Z,8.40
2022-12-24T14:23:01.587Z,8.36
2022-12-24T14:28:19.140Z,8.34
2022-12-24T14:33:34.483Z,8.27
2022-12-24T14:38:38.695Z,8.20
2022-12-24T14:43:46.068Z,8.15
2022-12-24T14:48:54.710Z,8.12
2022-12-24T14:54:27.083Z,8.07
2022-12-24T14:59:30.874Z,8.05
2022-12-24T15:04:33.383Z,8.04
2022-12-24T15:09:37.452Z,8.01
2022-12-24T15:14:45.084Z,7.98
2022-12-24T15:19:52.527Z,7.98
2022-12-24T15:25:00.189Z,7.96
2022-12-24T15:30:12.278Z,7.98
2022-12-24T15:35:35.979Z,7.98
2022-12-24T15:40:37.755Z,7.99
2022-12-24T15:45:53.547Z,8.00
2022-12-24T15:51:01.630Z,7.97
2022-12-24T15:56:36.705Z,7.96
2022-12-24T16:01:38.528Z,7.90
2022-12-24T16:07:01.935Z,7.84
2022-12-24T16:12:04.973Z,7.74
2022-12-24T16:17:23.814Z,7.74
2022-12-24T16:22:31.584Z,7.62
2022-12-24T16:27:38.378Z,7.38
2022-12-24T16:32:42.003Z,7.13
2022-12-24T16:37:43.711Z,6.99
2022-12-24T16:43:08.005Z,6.86
2022-12-24T16:48:19.196Z,6.68
2022-12-24T16:53:22.116Z,6.55
2022-12-24T16:58:24.005Z,6.46
2022-12-24T17:03:28.259Z,6.70
2022-12-24T17:08:29.992Z,6.82
2022-12-24T17:13:32.118Z,6.92
2022-12-24T17:18:35.454Z,6.96
2022-12-24T17:23:43.191Z,7.01
2022-12-24T17:28:47.075Z,7.00
2022-12-24T17:33:50.323Z,7.04
2022-12-24T17:38:55.004Z,7.08
2022-12-24T17:43:56.786Z,7.12
2022-12-24T17:48:58.511Z,7.12
2022-12-24T17:54:00.791Z,7.15
2022-12-24T17:59:03.872Z,7.16
2022-12-24T18:04:06.330Z,7.07
2022-12-24T18:09:08.369Z,6.99
2022-12-24T18:14:15.374Z,6.92
2022-12-24T18:19:22.677Z,6.94
2022-12-24T18:24:27.629Z,7.01
2022-12-24T18:29:29.340Z,7.07
2022-12-24T18:34:31.056Z,7.14
2022-12-24T18:39:32.755Z,7.17
2022-12-24T18:44:36.134Z,7.16
2022-12-24T18:49:38.656Z,7.14
2022-12-24T18:54:40.901Z,7.03
2022-12-24T18:59:42.597Z,6.80
2022-12-24T19:04:44.238Z,6.55
2022-12-24T19:09:48.446Z,6.36
2022-12-24T19:14:52.496Z,6.22
2022-12-24T19:19:56.310Z,5.98
2022-12-24T19:25:00.285Z,5.85
2022-12-24T19:30:02.667Z,5.72
2022-12-24T19:35:05.014Z,5.56
2022-12-24T19:40:10.722Z,5.46
2022-12-24T19:45:18.553Z,5.44
2022-12-24T19:50:23.324Z,5.42
2022-12-24T19:55:30.352Z,5.40
2022-12-24T20:00:35.218Z,5.30
2022-12-24T20:05:40.896Z,5.21
2022-12-24T20:10:45.632Z,5.15
2022-12-24T20:15:50.003Z,5.12
2022-12-24T20:20:54.865Z,5.08
2022-12-24T20:26:00.677Z,5.07
2022-12-24T20:31:19.602Z,5.10
2022-12-24T20:36:22.734Z,5.23
2022-12-24T20:41:30.645Z,5.41
2022-12-24T20:46:35.631Z,5.48
2022-12-24T20:51:40.202Z,5.52
2022-12-24T20:56:42.334Z,5.56
2022-12-24T21:01:48.878Z,5.63
2022-12-24T21:06:52.995Z,5.65
2022-12-24T21:11:54.669Z,5.47
2022-12-24T21:17:01.309Z,5.31
2022-12-24T21:22:08.356Z,5.18
2022-12-24T21:27:10.351Z,5.08
2022-12-24T21:32:13.883Z,5.02
2022-12-24T21:37:16.221Z,4.94
2022-12-24T21:42:20.397Z,4.86
2022-12-24T21:47:24.865Z,4.81
2022-12-24T21:52:26.627Z,5.14
2022-12-24T21:57:49.118Z,4.80
2022-12-24T22:02:55.118Z,4.66
2022-12-24T22:08:15.663Z,4.51
2022-12-24T22:13:18.796Z,4.39
2022-12-24T22:18:24.890Z,4.36
2022-12-24T22:23:28.955Z,4.29
2022-12-24T22:28:33.278Z,4.23
2022-12-24T22:33:36.667Z,4.19
2022-12-24T22:38:38.721Z,4.08
2022-12-24T22:43:42.111Z,4.04
2022-12-24T22:48:46.361Z,3.92
2022-12-24T22:53:48.595Z,3.77
2022-12-24T22:58:57.208Z,3.71
2022-12-24T23:04:01.460Z,3.68
2022-12-24T23:09:08.387Z,3.56
2022-12-24T23:14:49.344Z,3.50
2022-12-24T23:19:53.162Z,3.56
2022-12-24T23:24:54.864Z,3.95
2022-12-24T23:29:56.632Z,4.15
2022-12-24T23:34:58.330Z,4.46
2022-12-24T23:40:00.206Z,4.65
2022-12-24T23:45:04.973Z,4.79
2022-12-24T23:50:11.638Z,4.92
2022-12-24T23:55:13.363Z,5.05
